עמוד ראשי
METAR-TAF:

METAR-TAF

שדות תעופה :

South Naknek, אלסקה, ארצות הברית

קו רוחב: 58-42-08N, קו אורך: 157-00-09W, גובה: 49מטר

תצפית מזג אוויר נוכחית

הדו"ח נערך לפני 1 שעות ו 19דקות, בשעה 18:56 UTC
רוח 3קשר מכיוון מערב/דרום-מערב
טמפרטורת 16 צלסיוס
לחות 63%
לחץ 1022 hPa
ראות: 16.1קילומטר
שמיים נקיים

METAR: PFWS 151856Z AUTO 24003KT 10SM CLR 16/09 A3017 RMK AO2 SLP257 T01560094

זמן: 12:15 (20:15 UTC)


TAF: חסר

תצפיות ותחזיות מזג אוויר לגבי יותר מ- 4,000 שדות תעופה ברחבי העולם. דוחות METAR ו- TAF.

התחנות הזמינות מסומנות בנקודות צהובות ואדומות על גבי המפה.

העבר את העכבר לנקודה הצבעונית על מנת לראות את שם התחנה.

לאחר מכן, לחץ כדי לראות את תוכן ואת תחזיות מזג האוויר.

כדי לשנות את המפה: לחץ על הכפתורים הירוקים עם הפלוס השחור כדי להתקרב; על הכפתור הירוק עם המקף כדי להתרחק; או בחיצים הירוקים למפות סמוכות.


METAR-TAF: